Time;durP1;ratioP1;P1;durP2;ratioP2;P2;SDS_P1;SDS_P2;PMS_P1;PMS_P2;Temp;Humidity;BMP_temperature;BMP_pressure;BME280_temperature;BME280_humidity;BME280_pressure;Samples;Min_cycle;Max_cycle;Signal;HPM_P1;HPM_P2
2023/08/25 00:02:18;;;;;;;;;;;;;;;23.33;41.44;100065.03;4884376;28;98194;-76
2023/08/25 00:04:45;;;;;;;;;;;;;;;23.32;41.23;100068.16;4887842;28;98569;-76
2023/08/25 00:07:11;;;;;;;;;;;;;;;23.31;41.34;100064.63;4870265;28;98056;-76
2023/08/25 00:09:38;;;;;;;;;;;;;;;23.30;41.46;100052.00;4882093;28;100177;-76
2023/08/25 00:12:06;;;;;;;;;;;;;;;23.28;41.47;100051.59;4882759;28;99725;-76
2023/08/25 00:14:33;;;;;;;;;;;;;;;23.26;41.42;100038.22;4882757;28;99600;-76
2023/08/25 00:16:59;;;;;;;;;;;;;;;23.25;41.20;100028.38;4869817;28;100648;-76
2023/08/25 00:19:26;;;;;;;;;;;;;;;23.24;41.55;100035.03;4903071;28;98805;-76
2023/08/25 00:21:53;;;;;;;;;;;;;;;23.23;41.25;100021.66;4872236;28;98185;-76
2023/08/25 00:24:20;;;;;;;;;;;;;;;23.21;41.42;100024.75;4873027;28;98702;-76
2023/08/25 00:26:47;;;;;;;;;;;;;;;23.19;41.43;100026.28;4875570;28;99887;-76
2023/08/25 00:29:13;;;;;;;;;;;;;;;23.17;41.26;100028.59;4865245;28;98144;-77
2023/08/25 00:31:41;;;;;;;;;;;;;;;23.14;41.30;100037.56;4885014;28;98106;-76
2023/08/25 00:34:08;;;;;;;;;;;;;;;23.11;41.35;100033.59;4869767;28;98644;-76
2023/08/25 00:36:35;;;;;;;;;;;;;;;23.07;41.49;100032.72;4868561;28;98097;-76
2023/08/25 00:39:01;;;;;;;;;;;;;;;23.03;41.38;100023.63;4887073;28;97904;-77
2023/08/25 00:41:28;;;;;;;;;;;;;;;22.99;41.58;100025.47;4882118;28;98331;-76
2023/08/25 00:43:54;;;;;;;;;;;;;;;22.96;41.42;100023.47;4865171;28;98225;-76
2023/08/25 00:46:21;;;;;;;;;;;;;;;22.95;41.61;100032.84;4871037;28;98033;-75
2023/08/25 00:48:49;;;;;;;;;;;;;;;22.90;41.42;100022.91;4882460;28;98296;-77
2023/08/25 00:51:15;;;;;;;;;;;;;;;22.87;41.50;100020.09;4866554;28;98153;-76
2023/08/25 00:53:45;;;;;;;;;;;;;;;22.83;41.65;100005.50;4843457;28;98171;-78
2023/08/25 00:56:11;;;;;;;;;;;;;;;22.79;41.53;100008.97;4883655;28;98228;-77
2023/08/25 00:58:39;;;;;;;;;;;;;;;22.76;41.69;100012.44;4866613;28;98373;-77
2023/08/25 01:01:07;;;;;;;;;;;;;;;22.73;41.46;100013.16;4871142;28;99263;-77
2023/08/25 01:03:38;;;;;;;;;;;;;;;22.69;41.78;100012.28;4867568;28;98447;-78
2023/08/25 01:06:08;;;;;;;;;;;;;;;22.68;41.62;100013.44;4872491;28;98117;-77
2023/08/25 01:08:35;;;;;;;;;;;;;;;22.66;41.58;99995.72;4882106;28;99814;-77
2023/08/25 01:11:14;;;;;;;;;;;;;;;22.65;41.51;99991.38;4882900;28;98289;-77
2023/08/25 01:13:59;;;;;;;;;;;;;;;22.64;41.51;99993.34;4880924;28;98097;-77
2023/08/25 01:16:29;;;;;;;;;;;;;;;22.63;41.66;99993.69;4900730;28;98262;-75
2023/08/25 01:18:56;;;;;;;;;;;;;;;22.61;41.75;99987.78;4847535;28;98234;-75
2023/08/25 01:21:22;;;;;;;;;;;;;;;22.60;41.76;99975.19;4862435;28;98399;-77
2023/08/25 01:23:56;;;;;;;;;;;;;;;22.59;41.58;99985.38;4880815;28;98422;-75
2023/08/25 01:26:24;;;;;;;;;;;;;;;22.58;41.82;99983.78;4882032;28;97984;-77
2023/08/25 01:28:51;;;;;;;;;;;;;;;22.57;41.74;99992.41;4884508;28;100987;-77
2023/08/25 01:31:21;;;;;;;;;;;;;;;22.54;41.80;99982.91;4884052;28;98123;-77
2023/08/25 01:33:47;;;;;;;;;;;;;;;22.53;41.92;99978.59;4885867;28;98504;-77
2023/08/25 01:36:18;;;;;;;;;;;;;;;22.49;41.91;99989.50;4886053;28;98037;-77
2023/08/25 01:39:10;;;;;;;;;;;;;;;22.45;41.68;99988.63;4899138;28;99754;-76
2023/08/25 01:41:45;;;;;;;;;;;;;;;22.42;41.97;99989.31;4878838;28;98417;-76
2023/08/25 01:44:18;;;;;;;;;;;;;;;22.40;41.81;99988.09;4868906;28;98673;-76
2023/08/25 01:46:50;;;;;;;;;;;;;;;22.37;41.85;99994.31;4853697;28;98406;-77
2023/08/25 01:49:17;;;;;;;;;;;;;;;22.34;42.00;99990.31;4872039;28;98459;-76
2023/08/25 01:51:43;;;;;;;;;;;;;;;22.32;41.82;99975.34;4871828;28;97969;-75
2023/08/25 01:54:10;;;;;;;;;;;;;;;22.29;41.92;99976.88;4871690;28;98546;-76
2023/08/25 01:56:36;;;;;;;;;;;;;;;22.26;42.02;99980.34;4881992;28;99420;-76
2023/08/25 01:59:03;;;;;;;;;;;;;;;22.23;41.99;99987.31;4868458;28;98885;-76
2023/08/25 02:01:30;;;;;;;;;;;;;;;22.21;42.02;99986.09;4865252;28;98305;-76
2023/08/25 02:03:57;;;;;;;;;;;;;;;22.18;42.08;99984.88;4868536;28;99371;-77
2023/08/25 02:06:23;;;;;;;;;;;;;;;22.17;42.04;99975.03;4851384;28;98103;-76
2023/08/25 02:08:50;;;;;;;;;;;;;;;22.16;41.90;99978.91;4867216;28;98352;-76
2023/08/25 02:11:17;;;;;;;;;;;;;;;22.15;41.88;99982.03;4852554;28;98217;-77
2023/08/25 02:13:45;;;;;;;;;;;;;;;22.14;41.91;99977.69;4851495;28;97901;-76
2023/08/25 02:16:12;;;;;;;;;;;;;;;22.12;42.04;99983.50;4852267;28;99142;-75
2023/08/25 02:18:39;;;;;;;;;;;;;;;22.10;41.83;99982.28;4867267;28;98013;-76
2023/08/25 02:21:06;;;;;;;;;;;;;;;22.11;42.00;99981.91;4852292;28;98123;-76
2023/08/25 02:23:32;;;;;;;;;;;;;;;22.12;42.01;99979.97;4866456;28;100004;-75
2023/08/25 02:25:58;;;;;;;;;;;;;;;22.11;41.91;99981.91;4883521;28;98181;-75
2023/08/25 02:28:25;;;;;;;;;;;;;;;22.10;42.13;99988.56;4896212;28;98483;-75
2023/08/25 02:30:52;;;;;;;;;;;;;;;22.12;42.21;99983.50;4886863;28;99283;-76
2023/08/25 02:33:19;;;;;;;;;;;;;;;22.12;42.08;99982.72;4884304;28;98652;-75
2023/08/25 02:35:50;;;;;;;;;;;;;;;22.12;41.92;99986.25;4887992;28;97922;-76
2023/08/25 02:38:18;;;;;;;;;;;;;;;22.13;41.96;99978.84;4863828;28;103776;-76
2023/08/25 02:40:45;;;;;;;;;;;;;;;22.12;41.96;99978.00;4868518;28;98439;-75
2023/08/25 02:43:12;;;;;;;;;;;;;;;22.13;42.07;99984.31;4906102;28;98605;-75
2023/08/25 02:45:38;;;;;;;;;;;;;;;22.14;42.05;99983.19;4871239;28;98611;-75
2023/08/25 02:48:07;;;;;;;;;;;;;;;22.14;41.91;99978.50;4864110;28;99660;-75
2023/08/25 02:50:36;;;;;;;;;;;;;;;22.17;42.05;99979.75;4885732;28;98366;-76
2023/08/25 02:53:02;;;;;;;;;;;;;;;22.18;42.17;99968.41;4886991;28;98067;-75
2023/08/25 02:55:29;;;;;;;;;;;;;;;22.19;42.07;99955.47;4872909;28;98470;-75
2023/08/25 02:57:57;;;;;;;;;;;;;;;22.20;42.17;99955.09;4868084;28;98557;-76
2023/08/25 03:00:27;;;;;;;;;;;;;;;22.22;41.95;99968.47;4865303;28;98421;-75
2023/08/25 03:02:56;;;;;;;;;;;;;;;22.23;42.03;99961.84;4878820;28;98117;-76
2023/08/25 03:05:23;;;;;;;;;;;;;;;22.23;42.06;99957.13;4868322;28;98066;-76
2023/08/25 03:07:53;;;;;;;;;;;;;;;22.22;42.17;99958.28;4870714;28;99743;-76
2023/08/25 03:10:20;;;;;;;;;;;;;;;22.24;42.00;99955.19;4878682;28;98196;-76
2023/08/25 03:12:47;;;;;;;;;;;;;;;22.23;42.18;99959.88;4886036;28;105235;-76
2023/08/25 03:15:14;;;;;;;;;;;;;;;22.22;42.09;99952.81;4886227;28;98250;-76
2023/08/25 03:17:41;;;;;;;;;;;;;;;22.24;41.94;99957.94;4871232;28;98446;-76
2023/08/25 03:20:07;;;;;;;;;;;;;;;22.25;42.01;99959.53;4872825;28;98311;-76
2023/08/25 03:22:35;;;;;;;;;;;;;;;22.25;42.18;99954.06;4862908;28;98150;-76
2023/08/25 03:25:03;;;;;;;;;;;;;;;22.25;42.13;99945.81;4885709;28;98202;-76
2023/08/25 03:27:34;;;;;;;;;;;;;;;22.26;42.07;99952.88;4867030;28;98685;-77
2023/08/25 03:30:01;;;;;;;;;;;;;;;22.25;42.05;99941.13;4872593;28;98700;-76
2023/08/25 03:32:27;;;;;;;;;;;;;;;22.24;42.06;99944.19;4886754;28;100168;-76
2023/08/25 03:34:54;;;;;;;;;;;;;;;22.23;42.08;99937.13;4876592;28;98221;-76
2023/08/25 03:37:23;;;;;;;;;;;;;;;22.23;42.15;99940.66;4874847;28;97965;-76
2023/08/25 03:39:50;;;;;;;;;;;;;;;22.22;41.97;99938.28;4890970;28;98215;-76
2023/08/25 03:42:17;;;;;;;;;;;;;;;22.23;42.17;99937.13;4869751;28;98255;-76
2023/08/25 03:44:44;;;;;;;;;;;;;;;22.23;42.07;99937.13;4881221;28;98152;-76
2023/08/25 03:47:11;;;;;;;;;;;;;;;22.21;42.14;99943.00;4868641;28;98331;-76
2023/08/25 03:49:37;;;;;;;;;;;;;;;22.23;42.12;99939.88;4869323;28;100961;-76
2023/08/25 03:52:04;;;;;;;;;;;;;;;22.22;42.09;99944.56;4870238;28;98068;-76
2023/08/25 03:54:33;;;;;;;;;;;;;;;22.22;42.04;99941.81;4867641;28;98245;-76
2023/08/25 03:56:59;;;;;;;;;;;;;;;22.21;42.08;99937.50;4871711;28;100378;-76
2023/08/25 03:59:26;;;;;;;;;;;;;;;22.21;42.10;99945.72;4871868;28;98419;-76
2023/08/25 04:01:55;;;;;;;;;;;;;;;22.20;42.05;99949.59;4871367;28;99860;-76
2023/08/25 04:04:21;;;;;;;;;;;;;;;22.20;42.15;99946.06;4871620;28;98137;-76
2023/08/25 04:06:48;;;;;;;;;;;;;;;22.18;42.19;99951.94;4867370;28;98194;-76
2023/08/25 04:09:15;;;;;;;;;;;;;;;22.17;42.17;99944.84;4887776;28;98053;-76
2023/08/25 04:11:43;;;;;;;;;;;;;;;22.14;42.22;99958.50;4873390;28;99419;-76
2023/08/25 04:14:09;;;;;;;;;;;;;;;22.11;42.25;99965.44;4884708;28;98290;-77
2023/08/25 04:16:35;;;;;;;;;;;;;;;22.09;42.23;99967.78;4870036;28;98471;-76
2023/08/25 04:19:02;;;;;;;;;;;;;;;22.07;42.36;99959.09;4882731;28;97949;-75
2023/08/25 04:21:29;;;;;;;;;;;;;;;22.06;42.38;99960.25;4862069;28;98182;-76
2023/08/25 04:23:57;;;;;;;;;;;;;;;22.06;42.31;99965.72;4867215;28;98276;-76
2023/08/25 04:26:24;;;;;;;;;;;;;;;22.03;42.39;99967.22;4864413;28;98229;-76
2023/08/25 04:28:51;;;;;;;;;;;;;;;22.03;42.25;99966.44;4833068;28;99606;-76
2023/08/25 04:31:18;;;;;;;;;;;;;;;22.00;42.16;99967.16;4848501;28;99129;-76
2023/08/25 04:33:44;;;;;;;;;;;;;;;21.99;42.09;99963.59;4832782;28;98659;-76
2023/08/25 04:36:14;;;;;;;;;;;;;;;21.97;42.29;99957.69;4848452;28;97869;-75
2023/08/25 04:38:42;;;;;;;;;;;;;;;21.97;42.10;99951.41;4845488;28;99896;-76
2023/08/25 04:41:11;;;;;;;;;;;;;;;21.98;42.27;99961.22;4846513;28;98109;-76
2023/08/25 04:43:39;;;;;;;;;;;;;;;21.99;42.16;99960.88;4841254;28;98328;-76
2023/08/25 04:46:07;;;;;;;;;;;;;;;22.02;42.19;99951.94;4861328;28;98478;-76
2023/08/25 04:48:33;;;;;;;;;;;;;;;22.09;42.34;99951.31;4867154;28;98039;-76
2023/08/25 04:50:59;;;;;;;;;;;;;;;22.18;42.05;99953.88;4880141;28;98218;-76
2023/08/25 04:53:26;;;;;;;;;;;;;;;22.28;42.12;99958.81;4863798;28;98057;-76
2023/08/25 04:55:53;;;;;;;;;;;;;;;22.36;42.01;99952.34;4849641;28;98474;-76
2023/08/25 04:58:19;;;;;;;;;;;;;;;22.44;42.07;99940.34;4845165;28;117528;-76
2023/08/25 05:00:50;;;;;;;;;;;;;;;22.51;41.91;99940.47;4845329;28;98527;-76
2023/08/25 05:03:16;;;;;;;;;;;;;;;22.61;41.96;99941.09;4875957;28;99492;-76
2023/08/25 05:05:42;;;;;;;;;;;;;;;22.66;41.99;99938.84;4851939;28;99021;-76
2023/08/25 05:08:08;;;;;;;;;;;;;;;22.74;41.90;99939.78;4845679;28;98269;-76
2023/08/25 05:10:35;;;;;;;;;;;;;;;22.81;41.93;99937.19;4844716;28;98141;-76
2023/08/25 05:13:01;;;;;;;;;;;;;;;22.88;41.87;99942.81;4843732;28;98196;-76
2023/08/25 05:15:27;;;;;;;;;;;;;;;22.96;41.98;99935.53;4845449;28;98739;-76
2023/08/25 05:17:54;;;;;;;;;;;;;;;23.03;42.05;99941.19;4844391;28;99286;-76
2023/08/25 05:20:23;;;;;;;;;;;;;;;23.10;41.96;99935.00;4868431;28;98794;-76
2023/08/25 05:22:50;;;;;;;;;;;;;;;23.17;41.84;99935.94;4845653;28;98366;-76
2023/08/25 05:25:22;;;;;;;;;;;;;;;23.25;42.08;99925.84;4861419;28;99071;-76
2023/08/25 05:27:48;;;;;;;;;;;;;;;23.32;41.75;99926.00;4858953;28;98434;-76
2023/08/25 05:30:17;;;;;;;;;;;;;;;23.39;41.88;99925.34;4855988;28;98460;-76
2023/08/25 05:32:43;;;;;;;;;;;;;;;23.47;41.54;99927.84;4842482;28;99406;-75
2023/08/25 05:35:09;;;;;;;;;;;;;;;23.55;41.63;99926.00;4860218;28;98274;-75
2023/08/25 05:37:36;;;;;;;;;;;;;;;23.63;41.81;99935.16;4858801;28;98305;-76
2023/08/25 05:40:05;;;;;;;;;;;;;;;23.70;41.63;99933.34;4844818;28;98458;-76
2023/08/25 05:42:32;;;;;;;;;;;;;;;23.76;41.84;99929.09;4864144;28;98436;-76
2023/08/25 05:44:58;;;;;;;;;;;;;;;23.85;41.51;99925.31;4866521;28;99893;-76
2023/08/25 05:47:24;;;;;;;;;;;;;;;23.93;41.78;99930.56;4842936;28;98316;-76
2023/08/25 05:49:50;;;;;;;;;;;;;;;24.01;41.78;99928.69;4847067;28;98827;-76
2023/08/25 05:52:17;;;;;;;;;;;;;;;24.09;41.57;99927.66;4864851;28;98169;-76
2023/08/25 05:54:44;;;;;;;;;;;;;;;24.18;41.55;99932.88;4847299;28;98423;-75
2023/08/25 05:57:11;;;;;;;;;;;;;;;24.26;41.41;99934.56;4860316;28;98709;-76
2023/08/25 05:59:37;;;;;;;;;;;;;;;24.35;41.43;99931.53;4864773;28;102899;-76
2023/08/25 06:02:03;;;;;;;;;;;;;;;24.43;41.52;99927.75;4866279;28;98240;-76
2023/08/25 06:04:31;;;;;;;;;;;;;;;24.53;41.55;99935.34;4865219;28;98203;-75
2023/08/25 06:06:58;;;;;;;;;;;;;;;24.63;41.27;99937.44;4846224;28;97978;-76
2023/08/25 06:09:24;;;;;;;;;;;;;;;24.73;41.17;99931.28;4867371;28;101068;-76
2023/08/25 06:11:51;;;;;;;;;;;;;;;24.86;41.18;99933.78;4852986;28;98340;-75
2023/08/25 06:14:17;;;;;;;;;;;;;;;24.98;41.27;99939.03;4867074;28;99133;-75
2023/08/25 06:16:44;;;;;;;;;;;;;;;25.12;41.07;99936.47;4851521;28;98223;-76
2023/08/25 06:19:14;;;;;;;;;;;;;;;25.27;40.89;99931.88;4869978;28;99727;-75
2023/08/25 06:21:40;;;;;;;;;;;;;;;25.43;41.10;99934.41;4883810;28;97996;-76
2023/08/25 06:24:06;;;;;;;;;;;;;;;25.60;40.92;99928.22;4854452;28;98120;-75
2023/08/25 06:26:33;;;;;;;;;;;;;;;25.77;40.92;99932.28;4888028;28;98628;-76
2023/08/25 06:29:00;;;;;;;;;;;;;;;25.97;40.59;99926.56;4871198;28;98576;-76
2023/08/25 06:31:30;;;;;;;;;;;;;;;26.17;40.65;99934.19;4865339;28;97955;-75
2023/08/25 06:33:57;;;;;;;;;;;;;;;26.36;40.50;99941.38;4865511;28;98316;-75
2023/08/25 06:36:27;;;;;;;;;;;;;;;26.56;40.34;99935.59;4869750;28;98373;-75
2023/08/25 06:38:53;;;;;;;;;;;;;;;26.77;40.27;99941.22;4883040;28;99398;-76
2023/08/25 06:41:19;;;;;;;;;;;;;;;26.99;40.26;99944.81;4886161;28;100415;-76
2023/08/25 06:43:45;;;;;;;;;;;;;;;27.24;39.92;99935.84;4882842;28;99524;-75
2023/08/25 06:46:12;;;;;;;;;;;;;;;27.58;39.99;99939.78;4873438;28;98290;-75
2023/08/25 06:48:42;;;;;;;;;;;;;;;28.50;39.21;99940.13;4863856;28;98203;-76
2023/08/25 06:51:09;;;;;;;;;;;;;;;30.26;37.74;99948.81;4864145;28;98350;-76
2023/08/25 06:53:36;;;;;;;;;;;;;;;32.50;36.37;99947.47;4866732;28;98343;-74
2023/08/25 06:56:03;;;;;;;;;;;;;;;34.84;34.84;99957.28;4867047;28;98174;-74
2023/08/25 06:58:29;;;;;;;;;;;;;;;36.64;33.65;99961.34;4863942;28;98073;-76
2023/08/25 07:00:55;;;;;;;;;;;;;;;37.70;33.82;99967.59;4885858;28;98634;-75
2023/08/25 07:03:22;;;;;;;;;;;;;;;38.27;33.50;99967.19;4881287;28;99123;-75
2023/08/25 07:05:49;;;;;;;;;;;;;;;38.41;33.98;99958.13;4846280;28;99056;-74
2023/08/25 07:08:16;;;;;;;;;;;;;;;37.87;35.45;99954.06;4883280;28;98984;-76
2023/08/25 07:10:47;;;;;;;;;;;;;;;37.72;35.45;99947.44;4864261;28;98598;-74
2023/08/25 07:13:14;;;;;;;;;;;;;;;37.10;36.12;99948.34;4898950;28;98120;-74
2023/08/25 07:15:40;;;;;;;;;;;;;;;36.38;36.77;99939.78;4865593;28;98299;-74
2023/08/25 07:18:07;;;;;;;;;;;;;;;35.85;37.17;99950.09;4885778;28;98101;-74
2023/08/25 07:20:34;;;;;;;;;;;;;;;35.51;37.44;99953.66;4875081;28;98176;-74
2023/08/25 07:23:00;;;;;;;;;;;;;;;35.24;37.88;99945.69;4851450;28;98990;-75
2023/08/25 07:25:26;;;;;;;;;;;;;;;34.77;38.17;99947.09;4866170;28;99266;-76
2023/08/25 07:27:54;;;;;;;;;;;;;;;34.37;38.30;99943.84;4860353;28;98405;-75
2023/08/25 07:30:20;;;;;;;;;;;;;;;34.06;39.00;99935.09;4865525;28;102524;-75
2023/08/25 07:32:51;;;;;;;;;;;;;;;33.90;38.32;99942.28;4863312;28;98151;-75
2023/08/25 07:35:17;;;;;;;;;;;;;;;33.77;38.54;99943.44;4859591;28;97910;-75
2023/08/25 07:37:44;;;;;;;;;;;;;;;33.69;38.97;99951.22;4863148;28;98310;-76
2023/08/25 07:40:11;;;;;;;;;;;;;;;33.58;39.01;99945.88;4847610;28;98923;-74
2023/08/25 07:42:38;;;;;;;;;;;;;;;33.58;38.42;99942.31;4846307;28;98438;-75
2023/08/25 07:45:05;;;;;;;;;;;;;;;33.67;38.83;99953.66;4850326;28;98174;-76
2023/08/25 07:47:31;;;;;;;;;;;;;;;33.79;38.76;99963.31;4840814;28;99601;-76
2023/08/25 07:49:58;;;;;;;;;;;;;;;33.80;38.92;99954.53;4847701;28;98083;-74
2023/08/25 07:52:24;;;;;;;;;;;;;;;33.76;38.67;99953.03;4850999;28;98081;-76
2023/08/25 07:54:51;;;;;;;;;;;;;;;33.75;38.41;99949.44;4848667;28;99898;-77
2023/08/25 07:57:17;;;;;;;;;;;;;;;33.72;38.67;99953.91;4851463;28;99347;-76
2023/08/25 07:59:43;;;;;;;;;;;;;;;33.80;38.60;99967.69;4835197;28;98378;-75
2023/08/25 08:02:12;;;;;;;;;;;;;;;33.95;38.65;99977.28;4851832;28;98320;-75
2023/08/25 08:04:38;;;;;;;;;;;;;;;34.16;37.76;99987.94;4850392;28;98152;-75
2023/08/25 08:07:05;;;;;;;;;;;;;;;34.72;37.67;99981.22;4846830;28;98272;-74
2023/08/25 08:09:31;;;;;;;;;;;;;;;35.48;36.91;99986.09;4857925;28;98535;-76
2023/08/25 08:11:58;;;;;;;;;;;;;;;36.32;36.30;99989.31;4861673;28;98193;-76
2023/08/25 08:14:24;;;;;;;;;;;;;;;37.05;35.99;99983.41;4841313;28;98658;-75
2023/08/25 08:16:51;;;;;;;;;;;;;;;37.94;34.99;99981.88;4842779;28;98057;-75
2023/08/25 08:19:17;;;;;;;;;;;;;;;38.66;34.79;99985.13;4847625;28;98170;-76
2023/08/25 08:21:43;;;;;;;;;;;;;;;39.15;34.87;99984.09;4899602;28;100275;-75
2023/08/25 08:24:09;;;;;;;;;;;;;;;39.87;34.35;99994.69;4882321;28;109217;-74
2023/08/25 08:26:36;;;;;;;;;;;;;;;40.21;34.31;99996.19;4882687;28;98881;-74
2023/08/25 08:29:02;;;;;;;;;;;;;;;40.33;34.60;99988.72;4883174;28;98271;-76
2023/08/25 08:31:29;;;;;;;;;;;;;;;41.07;33.90;99981.09;4869019;28;110725;-77
2023/08/25 08:33:55;;;;;;;;;;;;;;;40.97;34.37;99990.88;4867582;28;98413;-73
2023/08/25 08:36:22;;;;;;;;;;;;;;;40.50;35.06;99981.34;4882795;28;98200;-73
2023/08/25 08:38:48;;;;;;;;;;;;;;;40.66;34.85;99988.56;4868775;28;99421;-73
2023/08/25 08:41:17;;;;;;;;;;;;;;;40.77;34.96;99985.94;4867873;28;127881;-73
2023/08/25 08:43:44;;;;;;;;;;;;;;;40.59;35.13;99988.94;4865336;28;98262;-76
2023/08/25 08:46:10;;;;;;;;;;;;;;;40.12;35.70;99985.75;4877647;28;105962;-74
2023/08/25 08:48:37;;;;;;;;;;;;;;;39.62;36.27;99993.13;4867304;28;98328;-76
2023/08/25 08:51:03;;;;;;;;;;;;;;;39.43;36.17;99979.13;4885341;28;97969;-69
2023/08/25 08:53:30;;;;;;;;;;;;;;;39.21;36.21;99978.56;4861071;28;98331;-78
2023/08/25 08:55:56;;;;;;;;;;;;;;;38.70;36.63;99980.13;4868285;28;97966;-69
2023/08/25 08:58:22;;;;;;;;;;;;;;;38.19;37.06;99974.38;4882723;28;101928;-70
2023/08/25 09:00:48;;;;;;;;;;;;;;;38.33;37.12;99975.78;4867505;28;98251;-77
2023/08/25 09:03:18;;;;;;;;;;;;;;;39.24;35.99;99977.66;4880349;28;109729;-77
2023/08/25 09:05:45;;;;;;;;;;;;;;;39.48;35.88;99983.31;4898864;28;98324;-70
2023/08/25 09:08:11;;;;;;;;;;;;;;;40.17;35.28;99989.97;4880443;28;98232;-71
2023/08/25 09:10:37;;;;;;;;;;;;;;;41.09;34.48;99984.19;4882233;28;101048;-70
2023/08/25 09:13:03;;;;;;;;;;;;;;;42.19;33.52;99981.84;4864297;28;99354;-70
2023/08/25 09:15:31;;;;;;;;;;;;;;;42.76;33.29;99986.03;4882400;28;98249;-70
2023/08/25 09:18:06;;;;;;;;;;;;;;;43.41;33.27;99991.19;4863961;28;98085;-70
2023/08/25 09:20:35;;;;;;;;;;;;;;;44.26;32.78;99988.28;4872029;28;98228;-70
2023/08/25 09:23:02;;;;;;;;;;;;;;;44.05;33.15;99987.66;4866055;28;98401;-70
2023/08/25 09:25:28;;;;;;;;;;;;;;;43.75;33.88;99989.34;4857396;28;98403;-77
2023/08/25 09:28:00;;;;;;;;;;;;;;;43.93;33.84;99976.78;4848963;28;101752;-70
2023/08/25 09:30:53;;;;;;;;;;;;;;;43.99;33.87;99974.75;4880857;28;100750;-76
2023/08/25 09:33:19;;;;;;;;;;;;;;;44.67;33.23;99973.63;4861417;28;98274;-70
2023/08/25 09:35:45;;;;;;;;;;;;;;;45.56;32.66;99980.53;4862639;28;128538;-73
2023/08/25 09:38:24;;;;;;;;;;;;;;;46.41;32.08;99987.38;4852875;28;98126;-80
2023/08/25 09:40:50;;;;;;;;;;;;;;;47.14;31.85;99986.81;4856017;28;98140;-72
2023/08/25 09:43:16;;;;;;;;;;;;;;;47.65;31.39;99997.69;4864268;28;98227;-72
2023/08/25 09:45:42;;;;;;;;;;;;;;;47.75;31.79;99986.69;4870404;28;100727;-80
2023/08/25 09:48:16;;;;;;;;;;;;;;;47.61;31.75;99980.88;4854638;28;98813;-72
2023/08/25 09:50:43;;;;;;;;;;;;;;;47.61;32.21;99986.59;4861194;28;98222;-72
2023/08/25 09:53:12;;;;;;;;;;;;;;;47.94;31.86;99996.03;4829692;28;99706;-79
2023/08/25 09:55:39;;;;;;;;;;;;;;;48.50;31.28;99998.16;4864484;28;98029;-80
2023/08/25 09:58:09;;;;;;;;;;;;;;;48.60;31.37;100001.38;4863507;28;98075;-78
2023/08/25 10:00:39;;;;;;;;;;;;;;;47.88;32.21;99998.97;4862742;28;97994;-71
2023/08/25 10:03:09;;;;;;;;;;;;;;;47.69;32.27;100001.81;4869187;28;100369;-71
2023/08/25 10:05:35;;;;;;;;;;;;;;;48.22;31.84;100003.47;4865076;28;99010;-80
2023/08/25 10:08:02;;;;;;;;;;;;;;;48.57;31.71;100005.31;4861536;28;98310;-72
2023/08/25 10:10:30;;;;;;;;;;;;;;;48.86;31.61;100000.72;4868090;28;98009;-71
2023/08/25 10:12:57;;;;;;;;;;;;;;;48.73;31.83;99984.25;4851084;28;98219;-71
2023/08/25 10:15:25;;;;;;;;;;;;;;;48.28;32.14;99982.09;4849739;28;98365;-72
2023/08/25 10:17:50;;;;;;;;;;;;;;;48.09;32.45;99981.34;4861599;28;98529;-71
2023/08/25 10:20:17;;;;;;;;;;;;;;;47.75;32.56;99978.13;4872718;28;98886;-72
2023/08/25 10:22:45;;;;;;;;;;;;;;;47.37;32.75;99975.97;4849817;28;98546;-71
2023/08/25 10:25:12;;;;;;;;;;;;;;;46.85;33.13;99973.31;4870984;28;98064;-72
2023/08/25 10:27:39;;;;;;;;;;;;;;;46.38;33.56;99981.94;4884579;28;98329;-80
2023/08/25 10:30:06;;;;;;;;;;;;;;;46.29;33.73;99968.81;4868677;28;98306;-80
2023/08/25 10:32:54;;;;;;;;;;;;;;;46.00;33.95;99971.03;4872047;28;98248;-80
2023/08/25 10:35:39;;;;;;;;;;;;;;;46.34;33.33;99975.78;4887302;28;98478;-80
2023/08/25 10:38:36;;;;;;;;;;;;;;;46.32;33.31;99979.16;4883997;28;98228;-80
2023/08/25 10:41:14;;;;;;;;;;;;;;;45.61;33.95;99971.19;4871111;28;97905;-81
2023/08/25 10:43:41;;;;;;;;;;;;;;;44.81;34.61;99971.84;4866104;28;99025;-73
2023/08/25 10:46:08;;;;;;;;;;;;;;;44.11;35.08;99984.84;4864527;28;98476;-81
2023/08/25 10:48:35;;;;;;;;;;;;;;;43.34;35.54;99972.59;4870162;28;98069;-81
2023/08/25 10:51:11;;;;;;;;;;;;;;;42.68;35.79;99977.22;4884252;28;98152;-73
2023/08/25 10:53:50;;;;;;;;;;;;;;;42.11;36.20;99984.31;4875952;28;98067;-73
2023/08/25 10:56:25;;;;;;;;;;;;;;;41.59;36.81;99969.25;4899265;28;98344;-81
2023/08/25 10:59:17;;;;;;;;;;;;;;;40.84;36.96;99962.97;4860754;28;98321;-81
2023/08/25 11:02:02;;;;;;;;;;;;;;;40.09;37.61;99981.06;4881325;28;98439;-73
2023/08/25 11:04:29;;;;;;;;;;;;;;;39.40;37.90;99980.06;4867465;28;98369;-73
2023/08/25 11:06:59;;;;;;;;;;;;;;;38.89;37.91;99980.88;4870986;28;99038;-73
2023/08/25 11:09:30;;;;;;;;;;;;;;;38.45;38.02;99984.06;4850608;28;98100;-74
2023/08/25 11:12:14;;;;;;;;;;;;;;;38.07;38.50;99982.50;4883172;28;98831;-74
2023/08/25 11:14:43;;;;;;;;;;;;;;;37.79;38.55;99984.47;4867945;28;106220;-81
2023/08/25 11:17:10;;;;;;;;;;;;;;;37.63;38.37;99987.56;4882551;28;98330;-82
2023/08/25 11:19:39;;;;;;;;;;;;;;;37.51;38.31;99985.66;4885527;28;98071;-73
2023/08/25 11:22:11;;;;;;;;;;;;;;;37.53;37.66;99981.16;4860537;28;100186;-82
2023/08/25 11:24:39;;;;;;;;;;;;;;;37.54;38.20;99985.53;4868749;28;98023;-74
2023/08/25 11:27:09;;;;;;;;;;;;;;;37.41;37.75;99984.84;4884321;28;99218;-73
2023/08/25 11:29:35;;;;;;;;;;;;;;;37.49;37.78;99985.34;4869395;28;98244;-82
2023/08/25 11:32:02;;;;;;;;;;;;;;;37.46;37.88;99989.88;4879631;28;100774;-81
2023/08/25 11:34:32;;;;;;;;;;;;;;;37.40;37.43;99993.72;4899559;28;103081;-82
2023/08/25 11:36:58;;;;;;;;;;;;;;;37.52;37.26;99996.44;4884873;28;98811;-73
2023/08/25 11:39:25;;;;;;;;;;;;;;;37.64;37.23;100010.81;4871911;28;98174;-82
2023/08/25 11:41:55;;;;;;;;;;;;;;;37.43;37.04;99998.44;4885513;28;98637;-82
2023/08/25 11:44:23;;;;;;;;;;;;;;;37.17;37.33;100001.41;4884186;28;98757;-81
2023/08/25 11:46:53;;;;;;;;;;;;;;;36.83;37.50;100013.56;4869731;28;98174;-82
2023/08/25 11:49:22;;;;;;;;;;;;;;;36.45;38.12;100013.72;4885681;28;98129;-73
2023/08/25 11:51:53;;;;;;;;;;;;;;;36.08;38.44;100017.00;4869276;28;98021;-82
2023/08/25 11:54:19;;;;;;;;;;;;;;;35.79;38.50;100010.75;4867921;28;98237;-73
2023/08/25 11:56:50;;;;;;;;;;;;;;;35.63;38.46;100017.28;4882477;28;98014;-75
2023/08/25 11:59:19;;;;;;;;;;;;;;;35.50;38.40;100019.31;4862446;28;98591;-74
2023/08/25 12:01:48;;;;;;;;;;;;;;;35.36;38.48;100020.50;4869525;28;98871;-74
2023/08/25 12:04:24;;;;;;;;;;;;;;;35.19;38.48;100013.44;4875215;28;98275;-75
2023/08/25 12:06:54;;;;;;;;;;;;;;;35.00;38.67;100012.41;4867990;28;97879;-76
2023/08/25 12:09:25;;;;;;;;;;;;;;;34.70;38.73;100022.84;4876207;28;99582;-81
2023/08/25 12:11:54;;;;;;;;;;;;;;;34.33;39.14;100021.44;4866058;28;98804;-75
2023/08/25 12:14:27;;;;;;;;;;;;;;;33.99;39.30;100036.69;4869357;28;98175;-83
2023/08/25 12:16:54;;;;;;;;;;;;;;;33.64;39.57;100032.72;4880707;28;98047;-82
2023/08/25 12:19:24;;;;;;;;;;;;;;;33.30;39.71;100036.69;4869746;28;99645;-74
2023/08/25 12:21:55;;;;;;;;;;;;;;;33.03;39.47;100050.81;4885863;28;98152;-74
2023/08/25 12:24:21;;;;;;;;;;;;;;;32.86;39.83;100054.75;4863526;28;98340;-75
2023/08/25 12:26:48;;;;;;;;;;;;;;;32.79;39.42;100052.88;4884404;28;98099;-75
2023/08/25 12:29:15;;;;;;;;;;;;;;;32.66;39.85;100052.72;4882365;28;98778;-81
2023/08/25 12:31:41;;;;;;;;;;;;;;;32.59;39.80;100050.06;4868752;28;98444;-81
2023/08/25 12:34:07;;;;;;;;;;;;;;;32.53;39.67;100048.19;4865144;28;99950;-74
2023/08/25 12:36:35;;;;;;;;;;;;;;;32.45;39.51;100044.75;4866220;28;98171;-75
2023/08/25 12:39:03;;;;;;;;;;;;;;;32.38;39.40;100020.53;4865116;28;98354;-74
2023/08/25 12:41:29;;;;;;;;;;;;;;;32.32;39.28;100025.06;4861195;28;98664;-81
2023/08/25 12:43:57;;;;;;;;;;;;;;;32.24;39.35;100023.63;4880217;28;98239;-81
2023/08/25 12:46:23;;;;;;;;;;;;;;;32.10;39.67;100013.50;4866188;28;98353;-81
2023/08/25 12:48:49;;;;;;;;;;;;;;;31.93;39.45;100023.75;4884542;28;98451;-74